Terminal Aerodrome Forecast
Issued by NWS Salt Lake City, UT

Home | Current Version | Previous Version | Text Only | Print | Product List | Glossary On
Versions: 1 2 3 4 5 6 7 8 9 10 11 12 13 14 15
000
FTUS45 KSLC 260237 AAA
TAFCDC
TAF AMD
KCDC 260237Z 2603/2624 23005KT P6SM SCT070
     FM260500 15005KT P6SM FEW050 SCT070
     FM262000 22011G18KT P6SM SCT130=

USA.gov is the U.S. government's official web portal to all federal, state and local government web resources and services.